Time;durP1;ratioP1;P1;durP2;ratioP2;P2;SDS_P1;SDS_P2;PMS_P1;PMS_P2;Temp;Humidity;BMP_temperature;BMP_pressure;BME280_temperature;BME280_humidity;BME280_pressure;Samples;Min_cycle;Max_cycle;Signal;HPM_P1;HPM_P2
2023/06/22 00:00:13;;;;;;;14.32;5.07;;;20.50;99.90;;;;;;3990383;29;20187;-93
2023/06/22 00:02:14;;;;;;;9.27;5.07;;;20.40;99.90;;;;;;4005936;29;20188;-93
2023/06/22 00:04:15;;;;;;;10.07;5.22;;;20.40;99.90;;;;;;3990854;29;20225;-95
2023/06/22 00:06:16;;;;;;;11.40;5.35;;;20.70;99.90;;;;;;4005434;29;20179;-95
2023/06/22 00:08:17;;;;;;;11.60;5.18;;;20.50;99.90;;;;;;3990728;29;20651;-95
2023/06/22 00:10:18;;;;;;;14.00;5.72;;;20.30;99.90;;;;;;4005744;29;20182;-93
2023/06/22 00:12:19;;;;;;;12.95;5.85;;;20.40;99.90;;;;;;4008536;29;20186;-93
2023/06/22 00:14:19;;;;;;;10.68;5.32;;;20.30;99.90;;;;;;3992687;29;20176;-93
2023/06/22 00:16:20;;;;;;;9.52;5.60;;;20.20;99.90;;;;;;4007992;29;20179;-93
2023/06/22 00:18:21;;;;;;;12.18;5.93;;;20.80;99.90;;;;;;3992872;29;20566;-93
2023/06/22 00:20:22;;;;;;;10.23;5.72;;;21.00;99.90;;;;;;3992944;29;20215;-92
2023/06/22 00:22:28;;;;;;;11.32;5.55;;;20.70;99.90;;;;;;4008212;29;20243;-94
2023/06/22 00:24:29;;;;;;;10.98;5.55;;;20.50;99.90;;;;;;3993002;29;20175;-93
2023/06/22 00:26:30;;;;;;;12.70;6.32;;;20.30;99.90;;;;;;3992929;29;20180;-94
2023/06/22 00:28:31;;;;;;;7.88;5.43;;;20.30;99.90;;;;;;3992934;29;20215;-93
2023/06/22 00:30:32;;;;;;;12.95;5.45;;;20.50;99.90;;;;;;3992551;29;20188;-93
2023/06/22 00:32:33;;;;;;;12.18;5.78;;;20.70;99.90;;;;;;4007951;29;20277;-93
2023/06/22 00:34:33;;;;;;;11.30;5.72;;;20.90;99.90;;;;;;3992630;29;20278;-94
2023/06/22 00:36:35;;;;;;;9.85;5.15;;;20.90;99.90;;;;;;4007423;29;20179;-94
2023/06/22 00:38:40;;;;;;;12.60;6.05;;;20.50;99.90;;;;;;4007924;29;20325;-93
2023/06/22 00:40:40;;;;;;;9.98;5.53;;;20.20;99.90;;;;;;4008436;29;20601;-94
2023/06/22 00:42:41;;;;;;;9.85;6.00;;;19.90;99.90;;;;;;4008091;29;20175;-93
2023/06/22 00:44:43;;;;;;;8.43;5.55;;;20.20;99.90;;;;;;3992824;29;20565;-92
2023/06/22 00:46:44;;;;;;;13.00;6.10;;;20.70;99.90;;;;;;3992091;29;20281;-94
2023/06/22 00:48:45;;;;;;;13.75;6.15;;;20.80;99.90;;;;;;4007506;29;20222;-93
2023/06/22 00:50:50;;;;;;;10.55;5.53;;;20.30;99.90;;;;;;3991700;29;20184;-91
2023/06/22 00:52:53;;;;;;;11.13;6.00;;;20.30;99.90;;;;;;3992262;29;20269;-95
2023/06/22 00:54:57;;;;;;;12.52;5.80;;;20.70;99.90;;;;;;4007589;29;20389;-93
2023/06/22 00:56:58;;;;;;;9.93;5.45;;;20.50;99.90;;;;;;3992370;29;20217;-93
2023/06/22 00:59:00;;;;;;;9.13;5.15;;;20.80;99.90;;;;;;4008135;29;20262;-94
2023/06/22 01:01:01;;;;;;;13.13;5.53;;;21.10;99.90;;;;;;4008334;29;20263;-93
2023/06/22 01:03:03;;;;;;;11.68;4.80;;;21.20;99.90;;;;;;3992337;29;20175;-93
2023/06/22 01:05:05;;;;;;;8.60;4.65;;;21.10;99.90;;;;;;3992381;29;20184;-92
2023/06/22 01:07:06;;;;;;;8.98;4.75;;;20.90;99.90;;;;;;3992212;29;20203;-92
2023/06/22 01:09:31;;;;;;;11.65;5.25;;;21.20;99.90;;;;;;3992193;29;20234;-95
2023/06/22 01:11:38;;;;;;;8.30;4.72;;;21.30;99.90;;;;;;4006979;29;20202;-93
2023/06/22 01:13:48;;;;;;;12.00;4.88;;;21.30;99.90;;;;;;4006965;29;20632;-94
2023/06/22 01:16:03;;;;;;;7.82;4.75;;;21.40;99.90;;;;;;3992178;29;20605;-93
2023/06/22 01:18:05;;;;;;;11.63;5.10;;;21.40;99.90;;;;;;3991765;29;20215;-94
2023/06/22 01:20:09;;;;;;;9.55;4.97;;;21.20;99.90;;;;;;3991859;29;20249;-94
2023/06/22 01:22:15;;;;;;;7.63;5.05;;;21.30;99.90;;;;;;3992211;29;20714;-92
2023/06/22 01:24:28;;;;;;;6.40;4.70;;;21.40;99.90;;;;;;3995199;29;20270;-91
2023/06/22 01:27:02;;;;;;;10.50;5.38;;;21.20;99.90;;;;;;3991723;29;20625;-94
2023/06/22 01:29:04;;;;;;;11.05;4.70;;;20.70;99.90;;;;;;3991747;29;20231;-92
2023/06/22 01:31:06;;;;;;;10.65;4.95;;;20.90;99.90;;;;;;4007222;23;20284;-87
2023/06/22 01:33:09;;;;;;;8.70;4.35;;;21.00;99.90;;;;;;4007501;29;20227;-88
2023/06/22 01:35:11;;;;;;;9.82;4.40;;;21.10;99.90;;;;;;4008421;29;20175;-91
2023/06/22 01:37:13;;;;;;;8.38;4.30;;;21.00;99.90;;;;;;4007353;29;20213;-88
2023/06/22 01:39:14;;;;;;;7.25;4.80;;;21.10;99.90;;;;;;4007834;29;20178;-88
2023/06/22 01:41:17;;;;;;;9.18;4.90;;;21.10;99.90;;;;;;4007699;29;20227;-89
2023/06/22 01:43:19;;;;;;;8.05;4.88;;;21.10;99.90;;;;;;3992532;29;20171;-88
2023/06/22 01:45:20;;;;;;;13.45;5.50;;;21.10;99.90;;;;;;4007883;29;20189;-89
2023/06/22 01:47:22;;;;;;;8.77;5.05;;;21.10;99.90;;;;;;4007203;29;20231;-89
2023/06/22 01:49:23;;;;;;;8.95;5.20;;;21.10;99.90;;;;;;3992668;29;20211;-88
2023/06/22 01:51:24;;;;;;;8.30;5.15;;;21.00;99.90;;;;;;4007504;29;20187;-89
2023/06/22 01:53:25;;;;;;;10.65;5.43;;;20.70;99.90;;;;;;4008473;29;20235;-89
2023/06/22 01:55:26;;;;;;;9.65;4.93;;;20.70;99.90;;;;;;4007329;29;20174;-88
2023/06/22 01:57:27;;;;;;;8.05;4.18;;;20.70;99.90;;;;;;4007230;29;20198;-89
2023/06/22 02:00:04;;;;;;;12.77;4.25;;;20.40;99.90;;;;;;3991767;29;20187;-89
2023/06/22 02:02:19;;;;;;;6.68;4.15;;;20.50;99.90;;;;;;4021540;29;20178;-92
2023/06/22 02:04:25;;;;;;;9.65;4.43;;;20.60;99.90;;;;;;4007174;29;20231;-89
2023/06/22 02:06:34;;;;;;;7.72;4.28;;;20.60;99.90;;;;;;4007081;29;20175;-88
2023/06/22 02:08:55;;;;;;;8.95;4.90;;;20.60;99.90;;;;;;3991656;29;20252;-89
2023/06/22 02:10:57;;;;;;;6.80;5.07;;;20.40;99.90;;;;;;4006607;29;20175;-89
2023/06/22 02:13:00;;;;;;;8.55;5.40;;;20.10;99.90;;;;;;4006985;29;20179;-88
2023/06/22 02:15:01;;;;;;;11.48;5.47;;;19.90;99.90;;;;;;4007370;29;20186;-89
2023/06/22 02:17:04;;;;;;;9.88;5.20;;;20.10;99.90;;;;;;4007233;29;20259;-88
2023/06/22 02:19:06;;;;;;;9.25;5.72;;;20.40;99.90;;;;;;3991747;29;20254;-89
2023/06/22 02:21:08;;;;;;;11.77;4.95;;;20.70;99.90;;;;;;4006975;29;20185;-92
2023/06/22 02:23:09;;;;;;;8.05;5.18;;;20.40;99.90;;;;;;4006969;29;20175;-89
2023/06/22 02:25:10;;;;;;;10.23;4.63;;;20.20;99.90;;;;;;4008207;29;20182;-87
2023/06/22 02:27:11;;;;;;;7.72;4.72;;;20.20;99.90;;;;;;4007007;29;20230;-88
2023/06/22 02:29:12;;;;;;;7.35;4.38;;;20.40;99.90;;;;;;4006975;29;20218;-89
2023/06/22 02:31:12;;;;;;;11.25;5.20;;;20.30;99.90;;;;;;3991917;29;20243;-88
2023/06/22 02:33:13;;;;;;;12.15;6.03;;;20.10;99.90;;;;;;4022009;29;20753;-89
2023/06/22 02:35:14;;;;;;;11.02;5.70;;;20.20;99.90;;;;;;3991538;29;20255;-90
2023/06/22 02:37:14;;;;;;;11.77;5.53;;;20.20;99.90;;;;;;4006452;29;20202;-88
2023/06/22 02:39:15;;;;;;;9.18;5.47;;;20.10;99.90;;;;;;4006454;29;20665;-88
2023/06/22 02:41:19;;;;;;;7.90;5.20;;;20.10;99.90;;;;;;3991024;29;20240;-88
2023/06/22 02:43:20;;;;;;;12.05;6.10;;;20.20;99.90;;;;;;3991188;29;20175;-88
2023/06/22 02:45:21;;;;;;;13.00;5.53;;;20.30;99.90;;;;;;4006685;29;20230;-91
2023/06/22 02:47:22;;;;;;;9.85;5.75;;;20.10;99.90;;;;;;3991381;29;20205;-88
2023/06/22 02:49:23;;;;;;;8.38;5.78;;;20.20;99.90;;;;;;4007614;29;20293;-88
2023/06/22 02:51:24;;;;;;;9.73;5.55;;;20.40;99.90;;;;;;4006299;29;20268;-89
2023/06/22 02:53:25;;;;;;;10.82;5.65;;;20.30;99.90;;;;;;4006533;29;20182;-90
2023/06/22 02:55:25;;;;;;;7.53;5.82;;;20.30;99.90;;;;;;3991578;29;20255;-88
2023/06/22 02:57:30;;;;;;;11.60;5.82;;;20.40;99.90;;;;;;4006739;29;20210;-88
2023/06/22 02:59:31;;;;;;;7.85;5.15;;;20.60;99.90;;;;;;4006286;29;20173;-88
2023/06/22 03:01:39;;;;;;;11.85;5.35;;;20.50;99.90;;;;;;3991910;29;20199;-88
2023/06/22 03:03:42;;;;;;;9.35;5.60;;;20.40;99.90;;;;;;4006688;29;20572;-89
2023/06/22 03:05:43;;;;;;;9.55;5.57;;;20.20;99.90;;;;;;4006226;29;20227;-90
2023/06/22 03:07:44;;;;;;;7.63;5.63;;;20.00;99.90;;;;;;3991200;29;20653;-89
2023/06/22 03:09:45;;;;;;;9.02;5.55;;;19.90;99.90;;;;;;4005995;29;20301;-88
2023/06/22 03:11:46;;;;;;;10.32;5.82;;;19.40;99.90;;;;;;4006266;29;20178;-89
2023/06/22 03:13:46;;;;;;;9.38;5.65;;;19.30;99.90;;;;;;4006218;29;20299;-89
2023/06/22 03:15:47;;;;;;;10.25;5.32;;;19.10;99.90;;;;;;3991065;29;20167;-89
2023/06/22 03:17:48;;;;;;;15.43;6.10;;;19.10;99.90;;;;;;4005877;29;20278;-89
2023/06/22 03:19:49;;;;;;;9.93;5.55;;;19.00;99.90;;;;;;4006104;29;20282;-92
2023/06/22 03:21:49;;;;;;;10.23;5.97;;;19.00;99.90;;;;;;3991084;29;20222;-89
2023/06/22 03:23:50;;;;;;;8.75;6.03;;;18.90;99.90;;;;;;4005997;29;20704;-89
2023/06/22 03:25:51;;;;;;;13.88;6.25;;;18.80;99.90;;;;;;4006043;29;20235;-92
2023/06/22 03:27:52;;;;;;;10.52;5.88;;;18.80;99.90;;;;;;4006104;29;20230;-89
2023/06/22 03:29:53;;;;;;;9.00;6.10;;;18.70;99.90;;;;;;4005833;29;20218;-90
2023/06/22 03:31:53;;;;;;;10.85;5.93;;;18.80;99.90;;;;;;4006298;29;20286;-89
2023/06/22 03:33:54;;;;;;;12.38;6.80;;;19.00;99.90;;;;;;3990866;29;20183;-89
2023/06/22 03:35:57;;;;;;;13.43;6.53;;;19.30;99.90;;;;;;4006200;29;20184;-88
2023/06/22 03:37:58;;;;;;;13.77;6.63;;;19.70;99.90;;;;;;3991101;29;20203;-91
2023/06/22 03:39:59;;;;;;;9.60;6.20;;;20.00;99.90;;;;;;4006385;29;20214;-88
2023/06/22 03:42:00;;;;;;;9.15;6.45;;;19.80;99.90;;;;;;4006247;29;20269;-89
2023/06/22 03:44:00;;;;;;;10.80;6.32;;;19.50;99.90;;;;;;4006332;29;20179;-88
2023/06/22 03:46:01;;;;;;;9.00;6.15;;;19.60;99.90;;;;;;4007943;29;20186;-89
2023/06/22 03:48:02;;;;;;;12.63;6.72;;;19.80;99.90;;;;;;4009123;29;20203;-88
2023/06/22 03:50:04;;;;;;;10.70;6.28;;;19.50;99.90;;;;;;4009224;29;20179;-88
2023/06/22 03:52:05;;;;;;;14.00;7.00;;;19.50;99.90;;;;;;4009324;29;20172;-89
2023/06/22 03:54:06;;;;;;;11.18;6.68;;;19.30;99.90;;;;;;4009201;29;20266;-89
2023/06/22 03:56:06;;;;;;;12.07;7.15;;;19.00;99.90;;;;;;4008771;29;20179;-88
2023/06/22 03:58:09;;;;;;;12.73;6.95;;;19.20;99.90;;;;;;4008664;29;20199;-89
2023/06/22 04:00:10;;;;;;;11.05;5.97;;;19.20;99.90;;;;;;4008986;29;20668;-89
2023/06/22 04:02:15;;;;;;;12.70;6.78;;;19.10;99.90;;;;;;4009275;29;20614;-88
2023/06/22 04:04:17;;;;;;;9.70;5.95;;;19.10;99.90;;;;;;4010159;29;20175;-89
2023/06/22 04:06:17;;;;;;;9.25;5.72;;;19.10;99.90;;;;;;4008282;29;20248;-88
2023/06/22 04:08:18;;;;;;;10.43;5.93;;;19.10;99.90;;;;;;4008270;29;20223;-89
2023/06/22 04:10:19;;;;;;;9.77;6.20;;;19.20;99.90;;;;;;3993597;29;20836;-91
2023/06/22 04:12:20;;;;;;;10.05;6.35;;;19.20;99.90;;;;;;3993531;29;20191;-89
2023/06/22 04:14:21;;;;;;;9.45;5.80;;;19.40;99.90;;;;;;3993553;29;20652;-90
2023/06/22 04:16:21;;;;;;;8.02;5.88;;;19.50;99.90;;;;;;3993162;29;20180;-90
2023/06/22 04:18:22;;;;;;;9.57;5.10;;;19.60;99.90;;;;;;3993170;29;20293;-91
2023/06/22 04:20:26;;;;;;;7.95;5.38;;;19.70;99.90;;;;;;4008122;29;20232;-91
2023/06/22 04:22:27;;;;;;;11.15;6.10;;;19.80;99.90;;;;;;4008522;29;20210;-92
2023/06/22 04:24:27;;;;;;;13.68;5.85;;;20.00;99.90;;;;;;3993294;29;20202;-88
2023/06/22 04:26:28;;;;;;;13.63;6.22;;;20.00;99.90;;;;;;4008362;29;20190;-90
2023/06/22 04:28:29;;;;;;;25.00;7.18;;;20.10;99.90;;;;;;3993316;29;20215;-89
2023/06/22 04:30:32;;;;;;;8.40;6.28;;;20.00;99.90;;;;;;4008502;29;20198;-89
2023/06/22 04:32:35;;;;;;;8.70;5.65;;;20.10;99.90;;;;;;4008038;29;20232;-89
2023/06/22 04:34:37;;;;;;;7.38;6.05;;;20.10;99.90;;;;;;4008371;29;20179;-90
2023/06/22 04:36:40;;;;;;;12.20;6.50;;;20.30;99.90;;;;;;3992966;29;20236;-90
2023/06/22 04:38:42;;;;;;;14.07;6.00;;;20.30;99.90;;;;;;4008218;29;20203;-89
2023/06/22 04:40:42;;;;;;;14.32;6.72;;;20.60;99.90;;;;;;3992966;29;20187;-88
2023/06/22 04:42:51;;;;;;;12.65;7.35;;;21.00;99.90;;;;;;4008364;29;20644;-90
2023/06/22 04:44:53;;;;;;;14.55;7.38;;;20.90;99.90;;;;;;3992824;29;20184;-88
2023/06/22 04:47:08;;;;;;;21.08;8.20;;;20.70;99.90;;;;;;3992696;29;20688;-89
2023/06/22 04:49:12;;;;;;;14.80;7.95;;;21.20;99.90;;;;;;3992535;29;20219;-90
2023/06/22 04:51:12;;;;;;;16.70;7.97;;;21.30;99.90;;;;;;3992417;29;20180;-90
2023/06/22 04:53:13;;;;;;;14.52;7.55;;;20.50;99.90;;;;;;3992752;29;20574;-89
2023/06/22 04:55:18;;;;;;;12.18;7.60;;;20.60;99.90;;;;;;3992621;29;20703;-88
2023/06/22 04:57:18;;;;;;;12.68;7.43;;;21.00;99.90;;;;;;4006816;29;20211;-89
2023/06/22 04:59:19;;;;;;;12.00;7.40;;;20.80;99.90;;;;;;4007805;29;20262;-88
2023/06/22 05:01:22;;;;;;;11.02;8.02;;;20.60;99.90;;;;;;4007925;29;20183;-88
2023/06/22 05:03:25;;;;;;;18.83;7.85;;;20.80;99.90;;;;;;4008277;29;20195;-88
2023/06/22 05:05:26;;;;;;;13.38;7.90;;;20.80;99.90;;;;;;4008120;29;20683;-88
2023/06/22 05:07:27;;;;;;;17.48;8.57;;;20.80;99.90;;;;;;4007949;29;20199;-93
2023/06/22 05:09:28;;;;;;;17.77;8.07;;;20.80;99.90;;;;;;3992858;29;20779;-93
2023/06/22 05:11:29;;;;;;;18.27;8.07;;;20.60;99.90;;;;;;4007981;29;20182;-88
2023/06/22 05:13:30;;;;;;;14.27;7.75;;;20.80;99.90;;;;;;4008261;29;20179;-90
2023/06/22 05:15:36;;;;;;;18.30;7.80;;;20.90;99.90;;;;;;3992942;29;20179;-89
2023/06/22 05:17:42;;;;;;;15.40;8.32;;;20.60;99.90;;;;;;4008063;29;20730;-91
2023/06/22 05:19:44;;;;;;;16.55;8.73;;;20.00;99.90;;;;;;4007722;29;20183;-91
2023/06/22 05:21:45;;;;;;;16.30;8.35;;;19.70;99.90;;;;;;4007654;29;20178;-92
2023/06/22 05:23:46;;;;;;;14.15;7.10;;;19.40;99.90;;;;;;4007901;29;20266;-90
2023/06/22 05:25:47;;;;;;;13.40;7.53;;;19.40;99.90;;;;;;3992764;29;20183;-89
2023/06/22 05:27:47;;;;;;;10.07;6.90;;;19.80;99.90;;;;;;3992634;29;20737;-88
2023/06/22 05:29:48;;;;;;;15.80;7.47;;;19.70;99.90;;;;;;4007750;29;20317;-95
2023/06/22 05:31:49;;;;;;;15.77;7.72;;;19.40;99.90;;;;;;4007746;29;20192;-89
2023/06/22 05:33:52;;;;;;;14.80;7.47;;;19.60;99.90;;;;;;4007692;29;20213;-91
2023/06/22 05:35:53;;;;;;;13.18;8.23;;;19.70;99.90;;;;;;4007416;29;20203;-89
2023/06/22 05:37:53;;;;;;;20.35;8.07;;;20.00;99.90;;;;;;3992633;29;20210;-90
2023/06/22 05:39:55;;;;;;;14.50;7.93;;;20.10;99.90;;;;;;4007495;29;20179;-90
2023/06/22 05:41:55;;;;;;;10.60;8.23;;;20.00;99.90;;;;;;3992787;29;20270;-90
2023/06/22 05:43:56;;;;;;;17.55;8.75;;;20.00;99.90;;;;;;4007564;29;20190;-90
2023/06/22 05:45:57;;;;;;;15.40;8.60;;;20.20;99.90;;;;;;3992232;29;20226;-92
2023/06/22 05:47:58;;;;;;;13.98;7.93;;;20.20;99.90;;;;;;3992609;29;20562;-91
2023/06/22 05:49:59;;;;;;;14.30;9.10;;;20.20;99.90;;;;;;3992425;29;20181;-91
2023/06/22 05:52:00;;;;;;;11.40;8.80;;;20.10;99.90;;;;;;3992628;29;20222;-90
2023/06/22 05:54:00;;;;;;;15.23;8.57;;;20.00;99.90;;;;;;3992535;29;20661;-90
2023/06/22 05:56:01;;;;;;;13.23;8.43;;;20.30;99.90;;;;;;3992459;29;20183;-90
2023/06/22 05:58:03;;;;;;;15.52;8.43;;;20.70;99.90;;;;;;3992566;29;20210;-89
2023/06/22 06:00:08;;;;;;;14.45;8.50;;;20.70;99.90;;;;;;3992635;29;20187;-88
2023/06/22 06:02:08;;;;;;;18.15;8.63;;;20.80;99.90;;;;;;4007582;29;20341;-90
2023/06/22 06:04:09;;;;;;;19.65;9.02;;;20.60;99.90;;;;;;4007618;29;20274;-94
2023/06/22 06:06:10;;;;;;;17.52;9.25;;;20.40;99.90;;;;;;3992692;29;20222;-89
2023/06/22 06:08:12;;;;;;;14.25;8.82;;;20.40;99.90;;;;;;3991862;29;20290;-89
2023/06/22 06:10:13;;;;;;;17.63;9.20;;;20.20;99.90;;;;;;3992106;29;20180;-90
2023/06/22 06:12:13;;;;;;;21.77;10.18;;;20.00;99.90;;;;;;4007285;29;20231;-89
2023/06/22 06:14:14;;;;;;;17.55;9.70;;;20.20;99.90;;;;;;3992368;29;20276;-88
2023/06/22 06:16:15;;;;;;;14.85;9.90;;;19.90;99.90;;;;;;3992392;29;20183;-89
2023/06/22 06:18:15;;;;;;;14.90;10.10;;;19.90;99.90;;;;;;4007201;29;20206;-88
2023/06/22 06:20:20;;;;;;;19.17;11.05;;;20.10;99.90;;;;;;4007448;29;20206;-88
2023/06/22 06:22:23;;;;;;;18.90;10.80;;;20.30;99.90;;;;;;3992346;29;20171;-89
2023/06/22 06:24:23;;;;;;;17.33;10.90;;;20.30;99.90;;;;;;3992291;29;20216;-88
2023/06/22 06:26:32;;;;;;;19.98;11.43;;;20.20;99.90;;;;;;3992188;29;20201;-90
2023/06/22 06:28:34;;;;;;;20.23;11.60;;;20.30;99.90;;;;;;4006881;29;20251;-88
2023/06/22 06:30:37;;;;;;;18.65;11.05;;;20.10;99.90;;;;;;4022422;29;20198;-89
2023/06/22 06:32:38;;;;;;;20.95;12.57;;;20.20;99.90;;;;;;4007252;29;20191;-89
2023/06/22 06:34:38;;;;;;;15.98;11.50;;;20.20;99.90;;;;;;3992121;29;20695;-90
2023/06/22 06:36:39;;;;;;;18.38;11.50;;;20.20;99.90;;;;;;4007043;29;20211;-88
2023/06/22 06:38:40;;;;;;;18.33;11.90;;;20.20;99.90;;;;;;4006895;29;20194;-88
2023/06/22 06:40:41;;;;;;;20.95;12.52;;;20.20;99.90;;;;;;4006775;29;20808;-89
2023/06/22 06:42:44;;;;;;;21.50;12.50;;;20.20;99.90;;;;;;4006855;29;20565;-89
2023/06/22 06:44:45;;;;;;;20.13;12.18;;;20.40;99.90;;;;;;4006908;29;20199;-90
2023/06/22 06:46:46;;;;;;;19.08;12.75;;;20.30;99.90;;;;;;3991824;29;20175;-89
2023/06/22 06:48:47;;;;;;;21.67;12.00;;;20.40;99.90;;;;;;4007044;29;20218;-90
2023/06/22 06:50:47;;;;;;;18.52;13.15;;;20.30;99.90;;;;;;3991954;29;20180;-90
2023/06/22 06:52:50;;;;;;;20.63;12.70;;;20.40;99.90;;;;;;4006740;29;20187;-89
2023/06/22 06:54:51;;;;;;;20.02;13.13;;;20.30;99.90;;;;;;4006712;29;20178;-89
2023/06/22 06:56:52;;;;;;;19.38;13.30;;;20.30;99.90;;;;;;3991767;29;20274;-89
2023/06/22 06:58:54;;;;;;;22.38;12.88;;;20.30;99.90;;;;;;3991815;29;20710;-88
2023/06/22 07:00:54;;;;;;;20.85;13.75;;;20.30;99.90;;;;;;4007024;29;20213;-89
2023/06/22 07:02:55;;;;;;;21.75;13.38;;;20.30;99.90;;;;;;3992183;29;20657;-89
2023/06/22 07:04:56;;;;;;;23.17;13.63;;;20.30;99.90;;;;;;3992060;29;20299;-89
2023/06/22 07:06:58;;;;;;;19.40;13.30;;;20.40;99.90;;;;;;3992047;29;20217;-89
2023/06/22 07:08:59;;;;;;;20.58;14.80;;;20.40;99.90;;;;;;4007201;29;20716;-89
2023/06/22 07:11:00;;;;;;;19.20;13.40;;;20.40;99.90;;;;;;4006856;29;20200;-89
2023/06/22 07:13:01;;;;;;;22.00;14.63;;;20.50;99.90;;;;;;3991910;29;20187;-89
2023/06/22 07:15:04;;;;;;;21.45;14.27;;;20.50;99.90;;;;;;4006800;29;20178;-89
2023/06/22 07:17:05;;;;;;;22.67;13.98;;;20.60;99.90;;;;;;3991582;29;20191;-89
2023/06/22 07:19:05;;;;;;;20.08;14.38;;;20.70;99.90;;;;;;3991702;29;20633;-89
2023/06/22 07:21:06;;;;;;;26.38;14.55;;;20.60;99.90;;;;;;3993472;29;20183;-88
2023/06/22 07:23:07;;;;;;;29.25;15.05;;;20.60;99.90;;;;;;3994809;29;20236;-90
2023/06/22 07:25:09;;;;;;;19.08;14.63;;;20.60;99.90;;;;;;4009536;29;20178;-88
2023/06/22 07:27:12;;;;;;;21.65;15.15;;;20.50;99.90;;;;;;3994521;29;20562;-89
2023/06/22 07:29:12;;;;;;;20.17;14.98;;;20.60;99.90;;;;;;3995045;29;20223;-90
2023/06/22 07:31:13;;;;;;;23.00;15.25;;;20.60;99.90;;;;;;4009706;29;20572;-89
2023/06/22 07:33:14;;;;;;;22.58;16.25;;;20.70;99.90;;;;;;4009585;29;20609;-90
2023/06/22 07:35:16;;;;;;;24.85;16.05;;;20.70;99.90;;;;;;4009943;29;20175;-89
2023/06/22 07:37:17;;;;;;;26.15;16.50;;;20.70;99.90;;;;;;4009513;29;20211;-89
2023/06/22 07:39:17;;;;;;;29.20;16.30;;;20.80;99.90;;;;;;3994577;29;20726;-89
2023/06/22 07:41:19;;;;;;;22.98;16.08;;;20.90;99.90;;;;;;3994059;29;20180;-89
2023/06/22 07:43:20;;;;;;;24.95;16.05;;;20.90;99.90;;;;;;3994249;29;20231;-89
2023/06/22 07:45:21;;;;;;;25.80;15.63;;;20.90;99.90;;;;;;3994148;29;20219;-89
2023/06/22 07:47:25;;;;;;;21.92;16.15;;;20.90;99.90;;;;;;3994244;29;20192;-89
2023/06/22 07:49:25;;;;;;;24.00;16.70;;;20.90;99.90;;;;;;3994122;29;20242;-90
2023/06/22 07:51:26;;;;;;;20.92;15.75;;;21.00;99.90;;;;;;3994193;29;20176;-88
2023/06/22 07:53:28;;;;;;;25.98;15.90;;;21.10;99.90;;;;;;3994058;29;20567;-89
2023/06/22 07:55:28;;;;;;;26.20;16.52;;;21.10;99.90;;;;;;4009575;29;20183;-89
2023/06/22 07:57:33;;;;;;;23.10;15.27;;;21.20;99.90;;;;;;4009110;29;20313;-90
2023/06/22 07:59:34;;;;;;;26.17;16.45;;;21.10;99.90;;;;;;4009494;29;20171;-88
2023/06/22 08:01:34;;;;;;;24.95;17.23;;;21.10;99.90;;;;;;4009129;29;20186;-88
2023/06/22 08:03:35;;;;;;;24.10;16.58;;;21.30;99.90;;;;;;4009127;29;20216;-88
2023/06/22 08:05:36;;;;;;;29.50;17.50;;;21.30;99.90;;;;;;4009117;29;20217;-88
2023/06/22 08:07:37;;;;;;;24.25;16.67;;;21.40;99.90;;;;;;4008726;29;20199;-88
2023/06/22 08:09:38;;;;;;;24.83;16.50;;;21.50;99.90;;;;;;3993630;29;20310;-92
2023/06/22 08:11:39;;;;;;;23.40;15.90;;;21.50;99.90;;;;;;4009016;29;20704;-90
2023/06/22 08:13:39;;;;;;;24.88;17.38;;;21.50;99.90;;;;;;4009281;29;20229;-91
2023/06/22 08:15:40;;;;;;;26.27;17.83;;;21.50;99.90;;;;;;4009118;29;20182;-90
2023/06/22 08:17:41;;;;;;;25.42;17.52;;;21.60;99.90;;;;;;4009134;29;20203;-91
2023/06/22 08:19:41;;;;;;;26.40;17.80;;;21.70;99.90;;;;;;3994067;29;20175;-91
2023/06/22 08:21:43;;;;;;;26.65;18.13;;;21.70;99.90;;;;;;3993996;29;20668;-91
2023/06/22 08:23:43;;;;;;;26.05;17.67;;;21.90;99.90;;;;;;4009406;29;20249;-91
2023/06/22 08:25:44;;;;;;;24.63;16.90;;;22.00;99.90;;;;;;4009239;29;20629;-91
2023/06/22 08:27:46;;;;;;;24.23;17.67;;;22.00;99.90;;;;;;3993838;29;20199;-92
2023/06/22 08:29:47;;;;;;;28.58;16.83;;;21.90;99.90;;;;;;4008991;29;20312;-91
2023/06/22 08:31:48;;;;;;;28.77;17.90;;;21.60;99.90;;;;;;3993583;29;20176;-91
2023/06/22 08:33:48;;;;;;;24.23;17.90;;;21.70;99.90;;;;;;3993829;29;20680;-91
2023/06/22 08:35:50;;;;;;;26.40;17.48;;;21.60;99.90;;;;;;3993727;29;20203;-91
2023/06/22 08:37:55;;;;;;;27.48;17.45;;;21.40;99.90;;;;;;4008994;29;20207;-90
2023/06/22 08:39:59;;;;;;;26.83;18.13;;;21.40;99.90;;;;;;3993603;29;20172;-89
2023/06/22 08:42:00;;;;;;;28.55;18.02;;;21.50;99.90;;;;;;4008744;29;20194;-91
2023/06/22 08:44:01;;;;;;;28.77;17.30;;;21.80;99.90;;;;;;4008701;29;20175;-91
2023/06/22 08:46:02;;;;;;;27.60;18.25;;;21.80;99.90;;;;;;3993618;29;20255;-90
2023/06/22 08:48:03;;;;;;;27.15;17.77;;;21.80;99.90;;;;;;4008615;29;20219;-90
2023/06/22 08:50:05;;;;;;;29.48;17.83;;;21.80;99.90;;;;;;3993342;29;20611;-91
2023/06/22 08:52:07;;;;;;;27.80;18.85;;;21.80;99.90;;;;;;4008577;29;20732;-91
2023/06/22 08:54:08;;;;;;;33.08;19.08;;;22.00;99.90;;;;;;4008760;29;20182;-91
2023/06/22 08:56:09;;;;;;;30.98;18.77;;;22.10;99.90;;;;;;3993288;29;20695;-90
2023/06/22 08:58:10;;;;;;;32.35;17.77;;;22.20;99.90;;;;;;3993450;29;20211;-91
2023/06/22 09:00:18;;;;;;;35.92;18.40;;;22.30;99.90;;;;;;3993570;29;20549;-90
2023/06/22 09:02:19;;;;;;;26.77;18.30;;;22.20;99.90;;;;;;4008868;29;20178;-90
2023/06/22 09:04:22;;;;;;;26.80;18.45;;;22.20;99.90;;;;;;3993406;29;20303;-91
2023/06/22 09:06:22;;;;;;;33.70;17.92;;;22.20;99.90;;;;;;3993588;29;20190;-91
2023/06/22 09:08:23;;;;;;;27.42;17.83;;;22.10;99.90;;;;;;4008474;29;20250;-91
2023/06/22 09:10:24;;;;;;;25.75;17.90;;;21.80;99.90;;;;;;3993223;29;20220;-92
2023/06/22 09:12:27;;;;;;;27.38;18.27;;;21.80;99.90;;;;;;3993167;29;20179;-92
2023/06/22 09:14:27;;;;;;;25.95;16.23;;;21.70;99.90;;;;;;4008126;29;20273;-90
2023/06/22 09:16:28;;;;;;;26.33;16.92;;;21.60;99.90;;;;;;3993043;29;20681;-91
2023/06/22 09:18:29;;;;;;;25.80;17.05;;;21.60;99.90;;;;;;3992940;29;20224;-91
2023/06/22 09:20:30;;;;;;;24.42;14.40;;;21.50;99.90;;;;;;4008208;29;20178;-91
2023/06/22 09:22:31;;;;;;;24.15;16.25;;;21.60;99.90;;;;;;3993147;29;20191;-90
2023/06/22 09:24:32;;;;;;;26.52;16.42;;;21.60;99.90;;;;;;4008181;29;20545;-91
2023/06/22 09:26:33;;;;;;;27.25;16.02;;;21.70;99.90;;;;;;3993234;29;20180;-91
2023/06/22 09:28:34;;;;;;;20.13;15.45;;;22.30;99.90;;;;;;4007962;29;20287;-91
2023/06/22 09:30:35;;;;;;;22.02;16.23;;;22.70;99.90;;;;;;4008227;29;20190;-91
2023/06/22 09:32:36;;;;;;;23.35;17.27;;;22.70;99.90;;;;;;4008194;29;20199;-91
2023/06/22 09:34:36;;;;;;;30.45;19.02;;;22.50;99.90;;;;;;3993210;29;20260;-92
2023/06/22 09:36:39;;;;;;;25.27;18.10;;;22.40;99.90;;;;;;3993063;29;20183;-93
2023/06/22 09:38:40;;;;;;;27.45;19.25;;;22.20;99.90;;;;;;4007836;29;20210;-93
2023/06/22 09:40:41;;;;;;;28.80;17.85;;;22.00;99.90;;;;;;4007846;29;20171;-92
2023/06/22 09:42:41;;;;;;;28.08;18.23;;;22.20;99.90;;;;;;3992586;29;20196;-92
2023/06/22 09:44:42;;;;;;;29.05;18.60;;;21.80;99.90;;;;;;3992929;29;20180;-93
2023/06/22 09:46:43;;;;;;;31.45;18.15;;;21.60;99.90;;;;;;3992710;29;20188;-95
2023/06/22 09:48:44;;;;;;;25.90;18.02;;;21.40;99.90;;;;;;3992593;29;20260;-94
2023/06/22 09:50:45;;;;;;;30.55;19.60;;;21.00;99.90;;;;;;3992714;29;20180;-93
2023/06/22 09:52:50;;;;;;;24.27;17.73;;;20.90;99.90;;;;;;4007598;29;20246;-93
2023/06/22 09:54:51;;;;;;;26.52;16.70;;;20.90;99.90;;;;;;3992734;29;20187;-93
2023/06/22 09:56:52;;;;;;;33.42;20.48;;;21.00;99.90;;;;;;3992815;29;20277;-94
2023/06/22 09:58:52;;;;;;;33.47;18.80;;;21.20;99.90;;;;;;4008213;29;20179;-94
2023/06/22 10:00:54;;;;;;;34.17;19.58;;;21.20;99.90;;;;;;3993838;29;20197;-93
2023/06/22 10:02:55;;;;;;;28.88;20.25;;;21.20;99.90;;;;;;3994564;29;20191;-95
2023/06/22 10:04:56;;;;;;;37.22;20.13;;;21.30;99.90;;;;;;4009597;29;20191;-95
2023/06/22 10:06:57;;;;;;;28.15;19.02;;;21.50;99.90;;;;;;4010173;29;20263;-93
2023/06/22 10:08:58;;;;;;;31.20;19.27;;;21.50;99.90;;;;;;3995994;29;20281;-96
2023/06/22 10:10:58;;;;;;;26.25;18.67;;;21.30;99.90;;;;;;3998848;29;20214;-96
2023/06/22 10:13:10;;;;;;;26.45;18.17;;;21.60;99.90;;;;;;4007739;29;20183;-93
2023/06/22 10:15:11;;;;;;;26.42;19.27;;;21.80;99.90;;;;;;3992589;29;20179;-95
2023/06/22 10:17:12;;;;;;;24.50;17.38;;;22.30;99.90;;;;;;3992727;29;20188;-92
2023/06/22 10:19:13;;;;;;;25.63;18.27;;;22.20;99.90;;;;;;3993453;29;20184;-94
2023/06/22 10:21:14;;;;;;;27.95;18.35;;;22.00;99.90;;;;;;4008271;29;20242;-91
2023/06/22 10:23:15;;;;;;;30.88;20.35;;;21.60;99.90;;;;;;3993234;29;20192;-90
2023/06/22 10:25:15;;;;;;;30.88;21.60;;;20.90;99.90;;;;;;3993031;29;20183;-92